Time;durP1;ratioP1;P1;durP2;ratioP2;P2;SDS_P1;SDS_P2;PMS_P1;PMS_P2;Temp;Humidity;BMP_temperature;BMP_pressure;BME280_temperature;BME280_humidity;BME280_pressure;Samples;Min_cycle;Max_cycle;Signal;HPM_P1;HPM_P2
2021/06/23 00:02:06;;;;;;;0.70;0.70;;;14.00;99.90;;;14.79;100.00;-21083.72;5065551;28;20442;-75
2021/06/23 00:04:33;;;;;;;0.70;0.60;;;13.90;99.90;;;14.89;100.00;-21086.50;5073869;28;20428;-74
2021/06/23 00:07:04;;;;;;;0.70;0.70;;;14.00;99.90;;;14.90;100.00;-21086.75;5058270;28;20914;-74
2021/06/23 00:09:35;;;;;;;0.70;0.60;;;14.00;99.90;;;14.89;100.00;-21086.34;5051791;28;20995;-75
2021/06/23 00:12:12;;;;;;;0.70;0.70;;;14.00;99.90;;;14.86;100.00;-21085.66;5036113;28;20440;-74
2021/06/23 00:14:42;;;;;;;0.80;0.73;;;14.00;99.90;;;14.93;100.00;-21087.59;5035666;28;20459;-74
2021/06/23 00:17:10;;;;;;;0.70;0.70;;;14.00;99.90;;;14.89;100.00;-21086.50;5046962;28;20455;-74
2021/06/23 00:19:37;;;;;;;0.77;0.70;;;14.00;99.90;;;14.92;100.00;-21087.31;5052641;28;20421;-74
2021/06/23 00:22:07;;;;;;;0.80;0.70;;;14.00;99.90;;;14.91;100.00;-21087.03;5069006;28;20917;-74
2021/06/23 00:24:35;;;;;;;0.83;0.83;;;14.00;99.90;;;14.90;100.00;-21086.75;5069978;28;20455;-74
2021/06/23 00:27:04;;;;;;;0.80;0.70;;;14.00;99.90;;;14.89;100.00;-21086.50;5071555;28;20427;-74
2021/06/23 00:29:32;;;;;;;0.70;0.60;;;14.00;99.90;;;14.92;100.00;-21087.31;5072016;28;20415;-75
2021/06/23 00:32:03;;;;;;;0.70;0.70;;;14.00;99.90;;;14.91;100.00;-21087.03;5072475;28;20438;-76
2021/06/23 00:34:32;;;;;;;0.70;0.70;;;14.00;99.90;;;14.92;100.00;-21087.31;5055597;28;20930;-75
2021/06/23 00:37:00;;;;;;;0.70;0.60;;;14.00;99.90;;;14.94;100.00;-21087.84;5054878;28;20932;-76
2021/06/23 00:39:27;;;;;;;0.70;0.70;;;14.00;99.90;;;14.93;100.00;-21087.59;5058348;28;20999;-76
2021/06/23 00:41:56;;;;;;;0.70;0.60;;;14.00;99.90;;;14.96;100.00;-21088.41;5051642;28;20460;-76
2021/06/23 00:44:24;;;;;;;0.70;0.70;;;14.00;99.90;;;14.91;100.00;-21087.03;5041671;28;20455;-76
2021/06/23 00:46:53;;;;;;;1.10;1.10;;;14.00;99.90;;;14.93;100.00;-21087.59;5072410;28;20448;-75
2021/06/23 00:49:29;;;;;;;0.70;0.60;;;14.00;99.90;;;14.93;100.00;-21087.59;5071990;28;20477;-74
2021/06/23 00:52:09;;;;;;;0.70;0.70;;;14.00;99.90;;;15.03;100.00;-21090.06;5071630;28;20517;-75
2021/06/23 00:54:57;;;;;;;0.70;0.70;;;14.10;99.90;;;14.95;100.00;-21088.13;5068514;28;20470;-74
2021/06/23 00:57:32;;;;;;;0.70;0.60;;;14.00;99.90;;;14.96;100.00;-21088.28;5072068;28;20449;-74
2021/06/23 01:00:00;;;;;;;0.70;0.60;;;14.00;99.90;;;14.98;100.00;-21088.97;5068346;28;20450;-74
2021/06/23 01:02:29;;;;;;;0.80;0.80;;;14.00;99.90;;;14.95;100.00;-21088.00;5055405;28;20522;-76
2021/06/23 01:04:59;;;;;;;0.70;0.63;;;14.00;99.90;;;14.89;100.00;-21086.50;5071216;28;20465;-76
2021/06/23 01:07:29;;;;;;;0.73;0.73;;;14.00;99.90;;;15.03;100.00;-21090.06;5051384;28;20447;-75
2021/06/23 01:10:00;;;;;;;1.47;1.37;;;14.00;99.90;;;14.96;100.00;-21088.28;5051403;28;20447;-74
2021/06/23 01:13:17;;;;;;;0.70;0.70;;;14.00;99.90;;;14.96;100.00;-21088.41;5034930;28;20435;-75
2021/06/23 01:15:48;;;;;;;0.70;0.60;;;14.00;99.90;;;15.06;100.00;-21091.03;5055271;28;20439;-74
2021/06/23 01:18:17;;;;;;;0.70;0.70;;;14.00;99.90;;;14.98;100.00;-21088.97;5054497;28;20487;-74
2021/06/23 01:20:48;;;;;;;0.70;0.70;;;14.00;99.90;;;15.00;100.00;-21089.25;5059104;28;20815;-75
2021/06/23 01:23:19;;;;;;;0.70;0.70;;;14.00;99.90;;;15.00;100.00;-21089.25;5071623;28;21077;-74
2021/06/23 01:25:52;;;;;;;0.70;0.70;;;14.00;99.90;;;14.96;100.00;-21088.41;5066267;28;20442;-74
2021/06/23 01:28:19;;;;;;;0.70;0.60;;;14.00;99.90;;;14.93;100.00;-21087.44;5071173;28;20430;-74
2021/06/23 01:31:10;;;;;;;0.70;0.60;;;14.00;99.90;;;14.94;100.00;-21087.72;5057468;28;20474;-76
2021/06/23 01:33:39;;;;;;;0.70;0.60;;;14.00;99.90;;;14.89;100.00;-21086.50;5071624;28;20436;-74
2021/06/23 01:36:08;;;;;;;0.80;0.70;;;14.00;99.90;;;14.92;100.00;-21087.31;5068988;28;20436;-76
2021/06/23 01:38:39;;;;;;;0.70;0.70;;;13.90;99.90;;;15.00;100.00;-21089.25;5072540;28;20567;-74
2021/06/23 01:41:08;;;;;;;0.70;0.60;;;14.00;99.90;;;15.00;100.00;-21089.25;5061423;28;20838;-76
2021/06/23 01:43:42;;;;;;;0.70;0.60;;;13.90;99.90;;;14.94;100.00;-21087.84;5055430;28;20436;-75
2021/06/23 01:46:10;;;;;;;0.70;0.60;;;13.90;99.90;;;14.86;100.00;-21085.53;5062474;28;20441;-75
2021/06/23 01:48:38;;;;;;;0.80;0.70;;;13.90;99.90;;;14.84;100.00;-21085.13;5038681;28;20436;-75
2021/06/23 01:51:06;;;;;;;0.70;0.60;;;13.90;99.90;;;14.90;100.00;-21086.75;5038174;28;20448;-75
2021/06/23 01:53:55;;;;;;;0.70;0.60;;;13.90;99.90;;;14.81;100.00;-21084.28;5070839;28;20551;-74
2021/06/23 01:56:24;;;;;;;0.70;0.70;;;13.90;99.90;;;14.93;100.00;-21087.44;5070291;28;20541;-75
2021/06/23 01:58:53;;;;;;;0.70;0.60;;;13.90;99.90;;;14.81;100.00;-21084.28;5055668;28;20512;-75
2021/06/23 02:01:45;;;;;;;0.70;0.70;;;13.80;99.90;;;14.77;100.00;-21083.06;5055042;28;20441;-75
2021/06/23 02:04:41;;;;;;;0.70;0.70;;;13.80;99.90;;;14.74;100.00;-21082.34;5051109;28;20802;-74
2021/06/23 02:07:46;;;;;;;0.70;0.63;;;13.80;99.90;;;14.70;100.00;-21081.41;5074736;28;20810;-75
2021/06/23 02:10:40;;;;;;;0.70;0.60;;;13.80;99.90;;;14.73;100.00;-21082.09;5063955;28;20489;-76
2021/06/23 02:14:26;;;;;;;0.70;0.60;;;13.80;99.90;;;14.60;100.00;-21078.66;5058757;28;20436;-76
2021/06/23 02:17:25;;;;;;;0.70;0.70;;;13.80;99.90;;;14.62;100.00;-21079.19;5075034;28;20474;-77
2021/06/23 02:20:06;;;;;;;0.70;0.60;;;13.70;99.90;;;14.52;100.00;-21076.31;5074717;28;20475;-77
2021/06/23 02:22:39;;;;;;;0.70;0.70;;;13.70;99.90;;;14.59;100.00;-21078.22;5074974;28;20507;-76
2021/06/23 02:25:15;;;;;;;0.70;0.60;;;13.60;99.90;;;14.62;100.00;-21079.06;5072441;28;20531;-75
2021/06/23 02:28:10;;;;;;;0.70;0.70;;;13.60;99.90;;;14.62;100.00;-21079.06;5073862;28;20441;-75
2021/06/23 02:30:38;;;;;;;0.70;0.60;;;13.60;99.90;;;14.63;100.00;-21079.34;5057461;28;20474;-75
2021/06/23 02:33:10;;;;;;;0.70;0.70;;;13.60;99.90;;;14.63;100.00;-21079.34;5073199;28;20543;-75
2021/06/23 02:35:41;;;;;;;0.80;0.70;;;13.60;99.90;;;14.62;100.00;-21079.19;5074079;28;20947;-74
2021/06/23 02:38:19;;;;;;;0.70;0.70;;;13.60;99.90;;;14.66;100.00;-21080.28;5066182;28;20488;-75
2021/06/23 02:40:50;;;;;;;0.70;0.60;;;13.60;99.90;;;14.63;100.00;-21079.34;5071274;28;20949;-75
2021/06/23 02:43:20;;;;;;;0.70;0.63;;;13.60;99.90;;;14.61;100.00;-21078.78;5054871;28;21231;-75
2021/06/23 02:45:49;;;;;;;0.70;0.60;;;13.60;99.90;;;14.58;100.00;-21078.09;5053905;28;20436;-75
2021/06/23 02:48:20;;;;;;;0.70;0.60;;;13.60;99.90;;;14.64;100.00;-21079.75;5053130;28;20427;-75
2021/06/23 02:51:05;;;;;;;0.70;0.60;;;13.60;99.90;;;14.65;100.00;-21079.88;5054007;28;20471;-74
2021/06/23 02:53:36;;;;;;;0.70;0.70;;;13.60;99.90;;;14.65;100.00;-21080.00;5053671;28;20463;-75
2021/06/23 02:56:05;;;;;;;0.70;0.70;;;13.60;99.90;;;14.72;100.00;-21081.94;5037036;28;20450;-74
2021/06/23 02:58:50;;;;;;;0.80;0.70;;;13.60;99.90;;;14.76;100.00;-21082.91;5045334;28;20456;-74
2021/06/23 03:01:19;;;;;;;0.70;0.60;;;13.70;99.90;;;14.66;100.00;-21080.16;5054438;28;20437;-77
2021/06/23 03:03:56;;;;;;;0.70;0.70;;;13.60;99.90;;;14.59;100.00;-21078.22;5060385;28;20778;-75
2021/06/23 03:06:37;;;;;;;1.83;1.73;;;13.60;99.90;;;14.62;100.00;-21079.06;5072977;28;20999;-76
2021/06/23 03:09:05;;;;;;;0.70;0.70;;;13.60;99.90;;;14.61;100.00;-21078.91;5075628;28;20467;-74
2021/06/23 03:12:00;;;;;;;0.70;0.60;;;13.60;99.90;;;14.66;100.00;-21080.28;5073779;28;20444;-76
2021/06/23 03:14:49;;;;;;;0.70;0.63;;;13.60;99.90;;;14.66;100.00;-21080.28;5071913;28;20428;-74
2021/06/23 03:17:17;;;;;;;0.70;0.60;;;13.60;99.90;;;14.65;100.00;-21079.88;5065814;28;20449;-76
2021/06/23 03:19:45;;;;;;;0.70;0.60;;;13.60;99.90;;;14.61;100.00;-21078.78;5074726;28;20485;-76
2021/06/23 03:22:13;;;;;;;0.70;0.60;;;13.60;99.90;;;14.63;100.00;-21079.47;5057033;28;20435;-76
2021/06/23 03:24:41;;;;;;;0.80;0.80;;;13.60;99.90;;;14.65;100.00;-21079.88;5058358;28;20821;-76
2021/06/23 03:27:09;;;;;;;0.70;0.70;;;13.60;99.90;;;14.52;100.00;-21076.31;5071737;28;20474;-75
2021/06/23 03:29:38;;;;;;;0.70;0.60;;;13.60;99.90;;;14.49;100.00;-21075.75;5055604;28;20441;-74
2021/06/23 03:32:10;;;;;;;0.70;0.60;;;13.60;99.90;;;14.49;100.00;-21075.59;5057057;28;20446;-76
2021/06/23 03:34:39;;;;;;;0.70;0.70;;;13.60;99.90;;;14.47;100.00;-21075.19;5038653;28;20531;-75
2021/06/23 03:37:09;;;;;;;0.70;0.70;;;13.50;99.90;;;14.54;100.00;-21076.84;5053288;28;20431;-76
2021/06/23 03:39:42;;;;;;;0.70;0.60;;;13.50;99.90;;;14.44;100.00;-21074.22;5054811;28;20467;-75
2021/06/23 03:42:11;;;;;;;0.70;0.60;;;13.50;99.90;;;14.42;100.00;-21073.81;5039265;28;20441;-77
2021/06/23 03:44:40;;;;;;;0.70;0.70;;;13.50;99.90;;;14.52;100.00;-21076.31;5035908;28;20541;-76
2021/06/23 03:47:18;;;;;;;0.70;0.60;;;13.50;99.90;;;14.49;100.00;-21075.59;5052428;28;20440;-76
2021/06/23 03:49:51;;;;;;;0.70;0.70;;;13.50;99.90;;;14.55;100.00;-21077.28;5055117;28;20432;-76
2021/06/23 03:52:18;;;;;;;0.70;0.60;;;13.50;99.90;;;14.56;100.00;-21077.41;5056649;28;20932;-74
2021/06/23 03:54:46;;;;;;;0.70;0.60;;;13.50;99.90;;;14.53;100.00;-21076.56;5056443;28;20487;-75
2021/06/23 03:57:14;;;;;;;0.80;0.70;;;13.50;99.90;;;14.56;100.00;-21077.41;5071856;28;20431;-76
2021/06/23 03:59:42;;;;;;;0.70;0.60;;;13.60;99.90;;;14.58;100.00;-21078.09;5072598;28;20556;-76
2021/06/23 04:02:11;;;;;;;0.70;0.70;;;13.50;99.90;;;14.63;100.00;-21079.34;5054939;28;20441;-75
2021/06/23 04:04:40;;;;;;;0.70;0.60;;;13.60;99.90;;;14.73;100.00;-21082.09;5035697;28;20430;-75
2021/06/23 04:07:09;;;;;;;0.70;0.60;;;13.60;99.90;;;14.73;100.00;-21082.09;5052118;28;20952;-74
2021/06/23 04:09:37;;;;;;;0.70;0.70;;;13.60;99.90;;;14.64;100.00;-21079.59;5044267;28;20451;-74
2021/06/23 04:12:12;;;;;;;0.70;0.70;;;13.60;99.90;;;14.71;100.00;-21081.53;5068849;28;20513;-75
2021/06/23 04:14:48;;;;;;;1.00;1.00;;;13.60;99.90;;;14.78;100.00;-21083.47;5072379;28;20953;-74
2021/06/23 04:17:38;;;;;;;0.70;0.60;;;13.70;99.90;;;14.85;100.00;-21085.38;5053579;28;20501;-74
2021/06/23 04:20:16;;;;;;;0.70;0.70;;;13.70;99.90;;;14.80;100.00;-21084.00;5053028;28;20461;-74
2021/06/23 04:22:55;;;;;;;0.80;0.80;;;13.70;99.90;;;14.90;100.00;-21086.75;5053149;28;20982;-76
2021/06/23 04:25:23;;;;;;;0.70;0.70;;;13.80;99.90;;;15.01;100.00;-21089.50;5060276;28;20488;-75
2021/06/23 04:27:50;;;;;;;0.70;0.70;;;13.80;99.90;;;15.03;100.00;-21090.19;5072313;28;20911;-77
2021/06/23 04:30:20;;;;;;;0.70;0.60;;;13.90;99.90;;;14.93;100.00;-21087.59;5068317;28;20446;-77
2021/06/23 04:32:50;;;;;;;0.70;0.70;;;13.90;99.90;;;15.01;100.00;-21089.50;5053726;28;20443;-76
2021/06/23 04:35:33;;;;;;;0.73;0.73;;;13.90;99.90;;;14.96;100.00;-21088.28;5059540;28;20566;-76
2021/06/23 04:38:01;;;;;;;0.70;0.60;;;13.90;99.90;;;14.91;100.00;-21087.03;5070396;28;20995;-76
2021/06/23 04:40:28;;;;;;;0.70;0.63;;;13.90;99.90;;;14.84;100.00;-21084.97;5072795;28;20455;-75
2021/06/23 04:42:58;;;;;;;6.73;1.83;;;13.90;99.90;;;14.89;100.00;-21086.50;5071406;28;20779;-75
2021/06/23 04:45:26;;;;;;;0.70;0.60;;;13.90;99.90;;;14.97;100.00;-21088.69;5071442;28;20449;-76
2021/06/23 04:47:57;;;;;;;0.70;0.70;;;13.90;99.90;;;15.00;100.00;-21089.38;5069742;28;20451;-73
2021/06/23 04:50:26;;;;;;;1.00;0.97;;;14.00;99.90;;;15.08;100.00;-21091.44;5051932;28;20448;-76
2021/06/23 04:52:58;;;;;;;0.80;0.70;;;14.00;99.90;;;15.07;100.00;-21091.16;5051740;28;20485;-76
2021/06/23 04:55:27;;;;;;;0.70;0.60;;;14.00;99.90;;;15.09;100.00;-21091.84;5043713;28;20445;-74
2021/06/23 04:58:06;;;;;;;0.70;0.60;;;14.00;99.90;;;15.23;100.00;-21095.56;5071341;28;20423;-76
2021/06/23 05:00:34;;;;;;;0.70;0.60;;;14.10;99.90;;;15.26;100.00;-21096.38;5070842;28;20992;-74
2021/06/23 05:03:07;;;;;;;0.70;0.70;;;14.20;99.90;;;15.33;100.00;-21098.31;5071576;28;20402;-73
2021/06/23 05:05:35;;;;;;;0.80;0.80;;;14.30;99.90;;;15.35;100.00;-21098.88;5071748;28;20983;-75
2021/06/23 05:08:04;;;;;;;0.70;0.70;;;14.30;99.90;;;15.37;100.00;-21099.28;5071456;28;20515;-74
2021/06/23 05:10:32;;;;;;;0.70;0.60;;;14.30;99.90;;;15.43;100.00;-21101.06;5069226;28;20782;-75
2021/06/23 05:13:00;;;;;;;0.70;0.60;;;14.30;99.90;;;15.55;100.00;-21104.09;5061735;28;20843;-75
2021/06/23 05:15:29;;;;;;;0.70;0.60;;;14.40;99.90;;;15.52;100.00;-21103.41;5077086;28;20464;-76
2021/06/23 05:17:57;;;;;;;0.70;0.70;;;14.40;99.90;;;15.62;100.00;-21106.16;5058106;28;20480;-75
2021/06/23 05:20:24;;;;;;;0.70;0.60;;;14.50;99.90;;;15.57;100.00;-21104.78;5058749;28;20469;-74
2021/06/23 05:22:53;;;;;;;0.70;0.70;;;14.60;99.90;;;15.55;100.00;-21104.09;5076250;28;20515;-74
2021/06/23 05:25:22;;;;;;;0.70;0.60;;;14.60;99.90;;;15.60;100.00;-21105.59;5075085;28;20931;-75
2021/06/23 05:27:49;;;;;;;0.77;0.70;;;14.60;99.90;;;15.59;100.00;-21105.19;5076307;28;20490;-74
2021/06/23 05:30:19;;;;;;;0.70;0.60;;;14.60;99.90;;;15.62;100.00;-21106.00;5075760;28;20452;-74
2021/06/23 05:32:46;;;;;;;0.70;0.60;;;14.60;99.90;;;15.77;100.00;-21110.13;5071620;28;20818;-75
2021/06/23 05:35:14;;;;;;;0.70;0.60;;;14.70;99.90;;;15.66;100.00;-21107.13;5056183;28;20421;-75
2021/06/23 05:37:42;;;;;;;0.70;0.60;;;14.70;99.90;;;15.69;100.00;-21107.94;5056399;28;20454;-76
2021/06/23 05:40:13;;;;;;;0.70;0.60;;;14.70;99.90;;;15.65;100.00;-21106.97;5061287;28;20970;-76
2021/06/23 05:42:42;;;;;;;0.80;0.80;;;14.70;99.90;;;15.63;100.00;-21106.28;5054921;28;20440;-76
2021/06/23 05:45:10;;;;;;;0.70;0.60;;;14.80;99.90;;;15.72;100.00;-21108.63;5039728;28;20458;-76
2021/06/23 05:47:38;;;;;;;0.70;0.60;;;14.80;99.90;;;15.74;100.00;-21109.31;5067036;28;20438;-75
2021/06/23 05:50:07;;;;;;;0.70;0.60;;;14.80;99.90;;;15.73;100.00;-21109.03;5074712;28;20413;-76
2021/06/23 05:52:36;;;;;;;0.70;0.63;;;14.80;99.90;;;15.74;100.00;-21109.31;5075918;28;20427;-75
2021/06/23 05:55:04;;;;;;;0.70;0.60;;;14.80;99.90;;;15.76;100.00;-21109.88;5066264;28;20882;-76
2021/06/23 05:57:33;;;;;;;0.70;0.60;;;14.80;99.90;;;15.94;100.00;-21114.81;5072962;28;20932;-75
2021/06/23 06:00:03;;;;;;;1.83;1.73;;;14.90;99.90;;;15.83;100.00;-21111.66;5072870;28;20464;-76
2021/06/23 06:02:39;;;;;;;0.70;0.60;;;15.00;99.90;;;15.92;100.00;-21114.25;5056446;28;20428;-76
2021/06/23 06:05:08;;;;;;;0.70;0.63;;;15.00;99.90;;;15.97;100.00;-21115.50;5056640;28;20785;-76
2021/06/23 06:07:36;;;;;;;0.70;0.70;;;15.10;99.90;;;16.20;100.00;-21121.69;5055049;28;20431;-76
2021/06/23 06:10:04;;;;;;;0.70;0.63;;;15.20;99.90;;;16.20;100.00;-21121.69;5068142;28;20426;-75
2021/06/23 06:12:33;;;;;;;0.70;0.60;;;15.30;99.90;;;16.38;100.00;-21126.63;5066637;28;20984;-76
2021/06/23 06:15:03;;;;;;;0.80;0.70;;;15.50;99.90;;;16.67;100.00;-21134.44;5074189;28;20943;-75
2021/06/23 06:17:31;;;;;;;0.70;0.60;;;15.50;99.90;;;16.43;100.00;-21128.00;5055033;28;20426;-76
2021/06/23 06:19:58;;;;;;;0.70;0.70;;;15.60;99.90;;;16.57;100.00;-21131.72;5073123;28;20473;-76
2021/06/23 06:22:27;;;;;;;0.70;0.70;;;15.60;99.90;;;16.47;100.00;-21128.81;5057921;28;20945;-74
2021/06/23 06:24:54;;;;;;;0.70;0.60;;;15.60;99.90;;;16.37;100.00;-21126.22;5070908;28;20853;-75
2021/06/23 06:27:22;;;;;;;0.70;0.60;;;15.70;99.90;;;16.30;100.00;-21124.28;5064583;28;20436;-76
2021/06/23 06:29:50;;;;;;;0.70;0.60;;;15.60;99.90;;;16.42;100.00;-21127.72;5071698;28;20433;-74
2021/06/23 06:32:21;;;;;;;0.70;0.60;;;15.60;99.90;;;16.18;100.00;-21121.13;5071659;28;20488;-74
2021/06/23 06:34:49;;;;;;;0.80;0.70;;;15.50;99.90;;;16.20;100.00;-21121.69;5059493;28;20426;-76
2021/06/23 06:37:16;;;;;;;0.70;0.70;;;15.40;99.90;;;16.53;100.00;-21130.47;5055651;28;20453;-76
2021/06/23 06:40:04;;;;;;;0.80;0.80;;;15.40;99.90;;;16.44;100.00;-21128.13;5066117;28;21142;-75
2021/06/23 06:42:33;;;;;;;0.80;0.80;;;15.50;99.90;;;16.36;100.00;-21126.06;5061360;28;20468;-75
2021/06/23 06:45:00;;;;;;;0.70;0.60;;;15.50;99.90;;;16.35;100.00;-21125.81;5059017;28;20469;-73
2021/06/23 06:47:29;;;;;;;0.80;0.70;;;15.50;99.90;;;16.38;100.00;-21126.47;5062041;28;20958;-76
2021/06/23 06:49:58;;;;;;;0.80;0.70;;;15.60;99.90;;;16.31;100.00;-21124.69;5072146;28;20514;-75
2021/06/23 06:52:26;;;;;;;0.80;0.73;;;15.60;99.90;;;16.30;100.00;-21124.44;5074311;28;20461;-75
2021/06/23 06:54:53;;;;;;;0.70;0.60;;;15.50;99.90;;;16.20;100.00;-21121.69;5068927;28;20446;-73
2021/06/23 06:57:22;;;;;;;1.10;1.00;;;15.50;99.90;;;16.27;100.00;-21123.59;5064117;28;20526;-75
2021/06/23 06:59:50;;;;;;;0.70;0.60;;;15.40;99.90;;;16.14;100.00;-21120.03;5073828;28;20472;-76
2021/06/23 07:02:17;;;;;;;0.70;0.70;;;15.50;99.90;;;16.29;100.00;-21124.16;5071520;28;20815;-75
2021/06/23 07:04:46;;;;;;;0.70;0.60;;;15.50;99.90;;;16.34;100.00;-21125.53;5069169;28;20454;-73
2021/06/23 07:07:14;;;;;;;0.70;0.60;;;15.50;99.90;;;16.16;100.00;-21120.56;5071145;28;21012;-73
2021/06/23 07:09:42;;;;;;;0.73;0.70;;;15.50;99.90;;;16.19;100.00;-21121.53;5071232;28;20456;-73
2021/06/23 07:12:11;;;;;;;0.73;0.70;;;15.50;99.90;;;16.20;100.00;-21121.69;5069273;28;20500;-72
2021/06/23 07:14:38;;;;;;;0.70;0.70;;;15.60;99.90;;;16.15;100.00;-21120.44;5071444;28;20979;-74
2021/06/23 07:17:06;;;;;;;0.70;0.70;;;15.50;99.90;;;16.15;100.00;-21120.44;5073370;28;20484;-73
2021/06/23 07:19:34;;;;;;;0.90;0.90;;;15.50;99.90;;;16.21;100.00;-21121.81;5070579;28;20424;-72
2021/06/23 07:22:04;;;;;;;0.73;0.67;;;15.40;99.90;;;16.01;100.00;-21116.47;5068317;28;20421;-75
2021/06/23 07:24:31;;;;;;;0.70;0.70;;;15.40;99.90;;;16.13;100.00;-21119.75;5069471;28;20984;-73
2021/06/23 07:26:59;;;;;;;0.80;0.80;;;15.40;99.90;;;16.07;100.00;-21118.25;5072187;28;20416;-75
2021/06/23 07:29:27;;;;;;;0.70;0.60;;;15.40;99.90;;;15.99;100.00;-21116.06;5066799;28;20437;-75
2021/06/23 07:37:04;;;;;;;0.70;0.70;;;15.30;99.90;;;16.16;100.00;-21120.72;5073455;28;20405;-74
2021/06/23 07:39:35;;;;;;;0.70;0.60;;;15.30;99.90;;;16.06;100.00;-21117.84;5069349;28;20458;-72
2021/06/23 07:42:04;;;;;;;0.70;0.60;;;15.30;99.90;;;16.26;100.00;-21123.31;5059854;28;20420;-74
2021/06/23 07:47:07;;;;;;;0.70;0.60;;;15.50;99.90;;;16.51;100.00;-21130.06;5062773;28;20443;-75
2021/06/23 07:49:38;;;;;;;0.80;0.70;;;15.60;99.90;;;16.55;100.00;-21131.03;5062327;28;20427;-73
2021/06/23 07:52:56;;;;;;;0.70;0.60;;;15.60;99.90;;;16.49;100.00;-21129.38;5071469;28;20462;-72
2021/06/23 08:09:04;;;;;;;0.80;0.80;;;16.10;99.90;;;16.97;100.00;-21142.28;5054992;28;20462;-73
2021/06/23 08:11:36;;;;;;;0.70;0.70;;;16.10;99.90;;;17.00;100.00;-21143.22;5053346;28;20423;-73
2021/06/23 08:14:06;;;;;;;0.80;0.70;;;16.20;99.90;;;17.16;100.00;-21147.50;5060731;28;20430;-73
2021/06/23 08:16:36;;;;;;;0.80;0.70;;;16.20;99.90;;;17.25;100.00;-21149.97;5062334;28;20395;-73
2021/06/23 08:19:05;;;;;;;0.80;0.70;;;16.30;99.90;;;17.14;100.00;-21146.94;5060311;28;20411;-73
2021/06/23 08:21:33;;;;;;;0.70;0.60;;;16.40;99.90;;;17.36;100.00;-21152.97;5071804;28;21071;-73
2021/06/23 08:24:02;;;;;;;0.70;0.70;;;16.50;99.90;;;17.20;100.00;-21148.44;5055261;28;21006;-73
2021/06/23 08:26:30;;;;;;;0.70;0.60;;;16.50;99.90;;;17.24;100.00;-21149.53;5069756;28;20438;-73
2021/06/23 08:28:58;;;;;;;0.70;0.60;;;16.60;99.90;;;17.33;100.00;-21152.16;5072506;28;20831;-73
2021/06/23 08:31:26;;;;;;;0.70;0.60;;;16.60;99.90;;;17.27;100.00;-21150.50;5074101;28;20429;-73
2021/06/23 08:33:58;;;;;;;0.70;0.60;;;16.60;99.90;;;17.50;100.00;-21156.69;5069541;28;20479;-73
2021/06/23 08:36:26;;;;;;;0.80;0.70;;;16.60;99.90;;;17.13;100.00;-21146.66;5057908;28;20779;-73
2021/06/23 08:38:53;;;;;;;0.70;0.60;;;16.60;99.90;;;17.31;100.00;-21151.59;5052376;28;20459;-73
2021/06/23 08:41:29;;;;;;;0.70;0.60;;;16.60;99.90;;;17.58;100.00;-21158.72;5055543;28;20527;-73
2021/06/23 08:43:59;;;;;;;0.70;0.60;;;16.70;99.90;;;17.39;100.00;-21153.78;5051627;28;20429;-73
2021/06/23 08:46:27;;;;;;;0.70;0.70;;;16.70;99.90;;;17.45;100.00;-21155.31;5054255;28;21066;-73
2021/06/23 08:48:55;;;;;;;0.70;0.60;;;16.80;99.90;;;17.45;100.00;-21155.31;5072545;28;20479;-73
2021/06/23 08:51:25;;;;;;;0.70;0.60;;;16.80;99.90;;;17.52;100.00;-21157.09;5072881;28;20409;-72
2021/06/23 08:53:53;;;;;;;0.70;0.60;;;16.80;99.90;;;17.68;100.00;-21161.34;5072778;28;20979;-73
2021/06/23 08:56:21;;;;;;;0.70;0.60;;;17.00;99.90;;;18.14;100.00;-21173.81;5054053;28;20681;-74
2021/06/23 08:58:49;;;;;;;0.70;0.70;;;17.10;99.90;;;18.30;100.00;-21178.06;5059405;28;20481;-73
2021/06/23 09:01:18;;;;;;;0.80;0.80;;;17.40;99.90;;;18.52;100.00;-21184.09;5062164;28;20539;-72
2021/06/23 09:04:08;;;;;;;0.70;0.60;;;17.60;99.90;;;18.62;100.00;-21186.53;5052903;28;20432;-73
2021/06/23 09:06:51;;;;;;;0.70;0.60;;;17.80;99.90;;;18.95;100.00;-21195.44;5052012;28;20444;-71
2021/06/23 09:09:25;;;;;;;0.77;0.70;;;17.90;99.90;;;18.67;100.00;-21188.06;5063996;28;20463;-71
2021/06/23 09:11:55;;;;;;;0.80;0.70;;;17.90;99.90;;;18.50;100.00;-21183.53;5072598;28;20426;-73
2021/06/23 09:14:26;;;;;;;0.70;0.70;;;17.90;99.90;;;18.79;100.00;-21191.34;5064454;28;20465;-73
2021/06/23 09:17:10;;;;;;;0.80;0.70;;;17.90;99.90;;;18.47;100.00;-21182.72;5062560;28;20391;-73
2021/06/23 09:19:53;;;;;;;0.70;0.60;;;17.80;99.90;;;18.49;100.00;-21183.25;5065374;28;20398;-73
2021/06/23 09:22:35;;;;;;;0.70;0.60;;;17.90;99.90;;;18.88;100.00;-21193.66;5059165;28;20445;-74
2021/06/23 09:25:26;;;;;;;0.80;0.70;;;18.00;99.90;;;19.21;100.00;-21202.56;5058869;28;20485;-73
2021/06/23 09:27:58;;;;;;;0.70;0.70;;;18.20;99.90;;;19.31;100.00;-21205.28;5055413;28;20413;-73
2021/06/23 09:30:33;;;;;;;0.70;0.70;;;18.40;99.90;;;18.86;100.00;-21193.13;5063676;28;20962;-73
2021/06/23 09:33:18;;;;;;;0.70;0.70;;;18.40;99.90;;;19.04;100.00;-21197.91;5066207;28;20463;-73
2021/06/23 09:35:59;;;;;;;0.80;0.77;;;18.60;99.90;;;19.93;100.00;-21221.69;5063448;28;21026;-74
2021/06/23 09:38:44;;;;;;;0.70;0.70;;;18.80;99.90;;;20.37;100.00;-21233.44;5062471;28;20461;-73
2021/06/23 09:41:22;;;;;;;0.70;0.60;;;19.20;99.90;;;20.06;100.00;-21225.25;5061637;28;20525;-73
2021/06/23 09:44:07;;;;;;;0.80;0.70;;;19.30;99.90;;;19.75;100.00;-21216.91;5058788;28;20451;-73
2021/06/23 09:46:37;;;;;;;0.70;0.60;;;19.30;99.90;;;19.63;100.00;-21213.63;5056306;28;20459;-73
2021/06/23 09:49:13;;;;;;;0.70;0.60;;;19.40;99.90;;;20.42;100.00;-21234.81;5055195;28;20444;-73
2021/06/23 09:51:45;;;;;;;0.70;0.60;;;19.50;99.90;;;20.07;100.00;-21225.53;5034863;28;20432;-72
2021/06/23 09:54:15;;;;;;;0.70;0.60;;;19.60;99.90;;;20.40;100.00;-21234.41;5050417;28;20838;-72
2021/06/23 09:57:09;;;;;;;0.80;0.80;;;19.60;99.90;;;20.88;100.00;-21247.25;5042741;28;20427;-72
2021/06/23 09:59:39;;;;;;;0.80;0.77;;;19.80;99.90;;;20.57;100.00;-21238.91;5065739;28;20435;-72
2021/06/23 10:02:25;;;;;;;0.70;0.60;;;19.90;99.90;;;20.48;100.00;-21236.59;5054493;28;20501;-72
2021/06/23 10:04:55;;;;;;;0.70;0.60;;;19.80;99.90;;;20.93;100.00;-21248.47;5063625;28;20982;-72
2021/06/23 10:07:40;;;;;;;0.70;0.60;;;20.00;99.90;;;21.43;100.00;-21261.84;5063384;28;20436;-72
2021/06/23 10:10:10;;;;;;;0.80;0.70;;;20.30;99.90;;;21.21;100.00;-21255.97;5047257;28;20443;-71
2021/06/23 10:12:38;;;;;;;0.70;0.60;;;20.50;99.90;;;21.70;100.00;-21269.19;5064356;28;20412;-72
2021/06/23 10:15:09;;;;;;;0.70;0.60;;;20.60;99.90;;;21.61;100.00;-21266.75;5065018;28;20423;-73
2021/06/23 10:17:38;;;;;;;0.70;0.60;;;20.80;99.90;;;21.28;100.00;-21257.88;5065591;28;20936;-73
2021/06/23 10:20:09;;;;;;;0.70;0.50;;;21.00;99.90;;;21.36;100.00;-21259.94;5062487;28;20466;-72
2021/06/23 10:22:40;;;;;;;0.80;0.60;;;21.10;99.90;;;21.93;100.00;-21275.19;5062017;28;20474;-72
2021/06/23 10:25:12;;;;;;;0.70;0.60;;;21.40;99.90;;;22.14;100.00;-21280.78;5059928;28;20440;-73
2021/06/23 10:27:43;;;;;;;0.70;0.60;;;21.40;99.90;;;22.31;100.00;-21285.28;5052718;28;20621;-72
2021/06/23 10:30:16;;;;;;;0.70;0.60;;;21.50;99.90;;;22.46;100.00;-21289.38;5073911;28;20485;-72
2021/06/23 10:32:43;;;;;;;0.70;0.60;;;21.60;99.90;;;21.50;100.00;-21263.63;5070017;28;20503;-71
2021/06/23 10:35:14;;;;;;;0.80;0.63;;;21.50;99.90;;;22.14;100.00;-21280.94;5067940;28;20432;-72
2021/06/23 10:37:44;;;;;;;0.70;0.50;;;21.40;99.90;;;22.39;100.00;-21287.47;5069761;28;20464;-72
2021/06/23 10:40:16;;;;;;;1.47;1.33;;;21.50;99.90;;;22.07;100.00;-21278.88;5075135;28;20923;-72
2021/06/23 10:42:43;;;;;;;0.70;0.50;;;21.40;99.90;;;22.06;100.00;-21278.59;5075004;28;20446;-72
2021/06/23 10:45:13;;;;;;;0.70;0.60;;;21.20;99.90;;;21.26;100.00;-21257.19;5067059;28;20493;-72
2021/06/23 10:47:44;;;;;;;0.70;0.60;;;21.10;99.90;;;22.19;100.00;-21282.28;5063287;28;20955;-72
2021/06/23 10:50:32;;;;;;;0.70;0.50;;;21.10;99.90;;;22.48;100.00;-21289.91;5065983;28;20932;-72